Time;durP1;ratioP1;P1;durP2;ratioP2;P2;SDS_P1;SDS_P2;PMS_P1;PMS_P2;Temp;Humidity;BMP_temperature;BMP_pressure;BME280_temperature;BME280_humidity;BME280_pressure;Samples;Min_cycle;Max_cycle;Signal;HPM_P1;HPM_P2
2023/06/24 00:01:06;;;;;;;;;8.50;7.50;;;;;23.97;91.26;98880.38;6077346;28;96995;-66
2023/06/24 00:04:10;;;;;;;;;9.00;8.40;;;;;23.96;91.17;98898.84;6070234;28;97669;-66
2023/06/24 00:07:15;;;;;;;;;7.80;7.00;;;;;23.90;90.92;98899.25;6070745;28;96691;-66
2023/06/24 00:10:18;;;;;;;;;10.00;8.00;;;;;23.91;91.20;98901.69;6069602;28;96558;-66
2023/06/24 00:13:22;;;;;;;;;6.20;6.20;;;;;23.95;90.81;98901.91;6069266;28;96468;-66
2023/06/24 00:16:27;;;;;;;;;6.75;6.75;;;;;23.99;90.17;98900.19;6070063;28;97221;-65
2023/06/24 00:19:31;;;;;;;;;6.40;6.40;;;;;23.96;90.11;98887.81;6068968;28;96433;-65
2023/06/24 00:22:36;;;;;;;;;7.00;7.00;;;;;23.96;89.45;98876.81;6069616;28;96574;-66
2023/06/24 00:25:40;;;;;;;;;8.50;8.00;;;;;23.88;88.01;98873.97;6069347;28;97061;-65
2023/06/24 00:28:44;;;;;;;;;9.20;8.20;;;;;23.93;88.59;98876.63;6052468;28;96591;-65
2023/06/24 00:31:47;;;;;;;;;6.00;6.00;;;;;23.90;87.95;98886.31;6069675;28;96710;-66
2023/06/24 00:34:51;;;;;;;;;8.50;8.00;;;;;23.89;87.51;98879.19;6052785;28;96781;-66
2023/06/24 00:37:57;;;;;;;;;7.60;6.00;;;;;23.91;86.96;98882.44;6052693;28;96657;-65
2023/06/24 00:41:03;;;;;;;;;7.40;6.60;;;;;23.81;86.87;98879.06;6046036;28;96893;-65
2023/06/24 00:44:07;;;;;;;;;6.60;6.60;;;;;23.74;86.66;98868.50;6044592;28;96602;-65
2023/06/24 00:47:11;;;;;;;;;7.00;5.60;;;;;23.66;86.65;98872.78;6046028;28;96281;-66
2023/06/24 00:50:16;;;;;;;;;7.00;6.60;;;;;23.67;87.06;98876.34;6062601;28;96548;-66
2023/06/24 00:53:24;;;;;;;;;8.00;7.00;;;;;23.72;86.76;98879.81;6036195;28;97338;-66
2023/06/24 00:56:38;;;;;;;;;7.00;7.00;;;;;23.77;86.41;98875.31;6050897;28;96701;-65
2023/06/24 00:59:45;;;;;;;;;7.00;7.00;;;;;23.86;86.26;98874.28;6050304;28;97264;-66
2023/06/24 01:02:49;;;;;;;;;7.00;6.00;;;;;23.81;85.95;98868.88;6051202;28;97289;-65
2023/06/24 01:05:54;;;;;;;;;7.00;7.00;;;;;23.81;85.73;98873.56;6067434;28;97150;-65
2023/06/24 01:09:02;;;;;;;;;7.00;7.00;;;;;23.78;85.22;98879.69;6051217;28;97007;-66
2023/06/24 01:12:06;;;;;;;;;7.80;7.00;;;;;23.70;85.21;98875.75;6050819;28;97130;-66
2023/06/24 01:15:11;;;;;;;;;6.00;5.00;;;;;23.70;84.92;98879.28;6074908;28;96406;-66
2023/06/24 01:18:22;;;;;;;;;6.00;6.00;;;;;23.75;85.32;98873.69;6091092;28;96767;-66
2023/06/24 01:21:46;;;;;;;;;7.00;6.25;;;;;23.78;85.00;98872.25;6052048;28;96407;-66
2023/06/24 01:25:08;;;;;;;;;6.60;5.60;;;;;23.76;85.06;98885.50;6068000;28;96875;-66
2023/06/24 01:28:32;;;;;;;;;6.80;6.80;;;;;23.64;84.29;98888.81;6068808;28;96521;-66
2023/06/24 01:31:42;;;;;;;;;6.00;6.00;;;;;23.64;84.22;98891.56;6051494;28;96508;-65
2023/06/24 01:34:58;;;;;;;;;6.00;5.00;;;;;23.57;84.29;98893.06;6068703;28;96424;-66
2023/06/24 01:38:08;;;;;;;;;5.75;5.75;;;;;23.52;84.97;98888.50;6052104;28;96507;-66
2023/06/24 01:41:17;;;;;;;;;7.00;6.00;;;;;23.51;85.30;98883.28;6035666;28;98425;-66
2023/06/24 01:44:21;;;;;;;;;8.00;8.00;;;;;23.56;84.91;98888.69;6068596;28;96346;-66
2023/06/24 01:47:29;;;;;;;;;5.00;5.00;;;;;23.57;84.93;98884.81;6067219;28;96979;-65
2023/06/24 01:50:34;;;;;;;;;5.75;5.75;;;;;23.58;84.07;98890.03;6034788;28;98530;-66
2023/06/24 01:53:43;;;;;;;;;8.00;7.00;;;;;23.53;83.53;98887.38;6051322;28;96977;-66
2023/06/24 01:56:49;;;;;;;;;7.00;6.00;;;;;23.51;83.70;98895.09;6068165;28;96975;-66
2023/06/24 01:59:55;;;;;;;;;6.40;6.00;;;;;23.51;83.35;98884.09;6050896;28;97895;-66
2023/06/24 02:03:02;;;;;;;;;6.60;6.60;;;;;23.61;82.84;98896.84;6068700;28;97033;-66
2023/06/24 02:06:09;;;;;;;;;7.00;6.00;;;;;23.54;81.93;98899.19;6051410;28;96653;-66
2023/06/24 02:09:16;;;;;;;;;5.00;5.00;;;;;23.54;81.76;98888.19;6067647;28;96252;-66
2023/06/24 02:12:21;;;;;;;;;6.00;6.00;;;;;23.55;82.18;98892.59;6068126;28;97257;-66
2023/06/24 02:15:27;;;;;;;;;4.00;4.00;;;;;23.46;82.39;98894.38;6051117;28;96527;-66
2023/06/24 02:18:31;;;;;;;;;6.00;6.00;;;;;23.48;82.92;98890.22;6050176;28;97642;-66
2023/06/24 02:21:37;;;;;;;;;5.00;4.40;;;;;23.50;83.10;98888.00;6066562;28;96892;-66
2023/06/24 02:24:42;;;;;;;;;5.00;5.00;;;;;23.55;82.21;98884.31;6050093;28;96911;-65
2023/06/24 02:27:46;;;;;;;;;6.00;5.00;;;;;23.61;82.66;98889.41;6050878;28;97092;-66
2023/06/24 02:30:50;;;;;;;;;5.00;4.20;;;;;23.56;82.63;98886.75;6050430;28;96501;-66
2023/06/24 02:33:56;;;;;;;;;5.00;5.00;;;;;23.50;82.34;98881.69;6050296;28;96678;-66
2023/06/24 02:36:59;;;;;;;;;7.00;7.00;;;;;23.56;83.10;98886.75;6067274;28;97043;-65
2023/06/24 02:40:05;;;;;;;;;5.80;5.80;;;;;23.58;82.67;98891.97;6049555;28;96828;-66
2023/06/24 02:43:08;;;;;;;;;5.00;5.00;;;;;23.53;82.80;98892.06;6066746;28;97559;-65
2023/06/24 02:46:12;;;;;;;;;7.33;7.00;;;;;23.56;83.75;98895.00;6033258;28;98437;-66
2023/06/24 02:49:21;;;;;;;;;6.00;5.00;;;;;23.55;83.15;98889.81;6066448;28;96578;-66
2023/06/24 02:52:28;;;;;;;;;4.20;4.20;;;;;23.53;83.13;98897.56;6050148;28;96494;-66
2023/06/24 02:55:34;;;;;;;;;8.60;8.00;;;;;23.52;83.09;98887.66;6049111;28;96595;-65
2023/06/24 02:58:40;;;;;;;;;8.50;7.00;;;;;23.57;83.64;98885.63;6061175;28;96900;-65
2023/06/24 03:01:52;;;;;;;;;5.20;5.00;;;;;23.58;82.88;98889.19;6046417;28;96936;-65
2023/06/24 03:04:58;;;;;;;;;8.40;8.40;;;;;23.52;83.07;98890.41;6064489;28;98074;-65
2023/06/24 03:08:03;;;;;;;;;6.00;6.00;;;;;23.51;83.60;98891.53;6046677;28;97266;-65
2023/06/24 03:11:07;;;;;;;;;7.00;7.00;;;;;23.50;83.66;98887.19;6046833;28;96941;-65
2023/06/24 03:14:12;;;;;;;;;6.00;6.00;;;;;23.55;83.78;98892.59;6048171;28;97050;-66
2023/06/24 03:17:18;;;;;;;;;7.00;7.00;;;;;23.51;84.42;98894.28;6049542;28;96969;-66
2023/06/24 03:20:24;;;;;;;;;6.50;6.50;;;;;23.44;85.50;98883.69;6065336;28;96376;-66
2023/06/24 03:23:28;;;;;;;;;7.00;6.80;;;;;23.39;86.16;98894.78;6046638;28;96706;-65
2023/06/24 03:26:36;;;;;;;;;6.00;6.00;;;;;23.45;87.38;98888.09;6048719;28;96504;-65
2023/06/24 03:29:41;;;;;;;;;6.50;6.50;;;;;23.38;87.52;98887.66;6048173;28;97442;-66
2023/06/24 03:32:48;;;;;;;;;5.00;4.40;;;;;23.32;88.20;98886.94;6032183;28;99584;-66
2023/06/24 03:35:54;;;;;;;;;6.00;6.00;;;;;23.23;89.41;98888.75;6065412;28;96484;-66
2023/06/24 03:39:03;;;;;;;;;6.00;5.40;;;;;23.21;89.90;98899.22;6047798;28;97374;-65
2023/06/24 03:42:07;;;;;;;;;8.60;8.00;;;;;23.21;90.58;98899.22;6046416;28;98138;-66
2023/06/24 03:45:12;;;;;;;;;4.00;4.00;;;;;23.18;91.33;98901.78;6047575;28;96928;-65
2023/06/24 03:48:15;;;;;;;;;5.00;5.00;;;;;23.12;92.41;98897.50;6063985;28;96383;-66
2023/06/24 03:51:20;;;;;;;;;7.60;7.60;;;;;23.10;91.77;98895.06;6031075;28;97071;-66
2023/06/24 03:54:23;;;;;;;;;8.00;8.00;;;;;23.17;91.34;98903.72;6047868;28;97542;-65
2023/06/24 03:57:26;;;;;;;;;6.00;6.00;;;;;23.14;91.21;98903.53;6049708;28;96647;-65
2023/06/24 04:00:30;;;;;;;;;8.40;7.00;;;;;23.22;90.86;98903.63;6066528;28;96730;-66
2023/06/24 04:03:33;;;;;;;;;7.00;6.00;;;;;23.23;90.85;98907.19;6066149;28;96288;-66
2023/06/24 04:06:38;;;;;;;;;7.50;7.00;;;;;23.30;90.33;98904.88;6048926;28;98750;-66
2023/06/24 04:09:41;;;;;;;;;6.00;6.00;;;;;23.32;89.94;98908.94;6065256;28;96794;-66
2023/06/24 04:12:45;;;;;;;;;6.00;6.00;;;;;23.37;90.23;98913.53;6065820;28;96446;-66
2023/06/24 04:15:49;;;;;;;;;6.40;6.00;;;;;23.46;90.11;98908.16;6048292;28;98505;-66
2023/06/24 04:18:52;;;;;;;;;6.00;5.00;;;;;23.40;90.15;98917.63;6048572;28;96823;-66
2023/06/24 04:21:57;;;;;;;;;6.00;6.00;;;;;23.47;89.57;98920.78;6065493;28;98047;-66
2023/06/24 04:25:00;;;;;;;;;7.20;7.20;;;;;23.47;89.53;98921.59;6074548;28;96482;-66
2023/06/24 04:28:04;;;;;;;;;9.25;8.00;;;;;23.46;89.69;98928.22;6072090;28;96844;-66
2023/06/24 04:31:08;;;;;;;;;7.50;7.50;;;;;23.47;89.63;98931.78;6072245;28;96558;-66
2023/06/24 04:34:11;;;;;;;;;8.80;8.00;;;;;23.46;89.09;98933.72;6092426;28;97587;-66
2023/06/24 04:37:16;;;;;;;;;8.40;7.80;;;;;23.29;89.67;98934.31;6076480;28;96914;-66
2023/06/24 04:40:22;;;;;;;;;8.00;7.00;;;;;23.30;90.19;98940.63;6091966;28;96412;-66
2023/06/24 04:43:27;;;;;;;;;7.75;7.00;;;;;23.29;90.83;98948.06;6074162;28;97588;-66
2023/06/24 04:46:32;;;;;;;;;5.60;5.60;;;;;23.14;91.85;98947.53;6093451;28;97183;-66
2023/06/24 04:49:36;;;;;;;;;5.00;5.00;;;;;23.12;92.04;98947.81;6073828;28;97502;-65
2023/06/24 04:52:41;;;;;;;;;7.00;6.00;;;;;23.09;92.53;98955.84;6068740;28;97043;-66
2023/06/24 04:55:44;;;;;;;;;8.00;7.00;;;;;23.10;93.41;98969.31;6069399;28;96388;-66
2023/06/24 04:58:47;;;;;;;;;7.00;7.00;;;;;23.06;94.08;98961.97;6076818;28;97397;-66
2023/06/24 05:01:51;;;;;;;;;7.00;6.60;;;;;23.06;95.68;98967.47;6066570;28;96628;-65
2023/06/24 05:04:54;;;;;;;;;9.00;8.40;;;;;23.01;96.86;98970.31;6048072;28;96906;-65
2023/06/24 05:07:59;;;;;;;;;8.00;7.00;;;;;22.97;98.61;98963.78;6066089;28;96569;-64
2023/06/24 05:11:02;;;;;;;;;5.00;5.00;;;;;22.98;99.17;98981.88;6065400;28;96500;-65
2023/06/24 05:14:06;;;;;;;;;9.00;7.60;;;;;23.00;99.59;98974.16;6065149;28;97532;-64
2023/06/24 05:17:09;;;;;;;;;9.20;8.60;;;;;22.97;99.80;98980.28;6066510;28;97000;-65
2023/06/24 05:20:13;;;;;;;;;7.80;7.40;;;;;22.93;100.00;98984.72;6066930;28;97531;-65
2023/06/24 05:23:17;;;;;;;;;10.00;8.00;;;;;22.88;100.00;98977.38;6052608;28;97718;-65
2023/06/24 05:26:21;;;;;;;;;7.20;7.00;;;;;22.86;100.00;98974.13;6050618;28;98474;-65
2023/06/24 05:29:24;;;;;;;;;8.00;8.00;;;;;22.91;100.00;98985.03;6051053;28;97922;-65
2023/06/24 05:32:27;;;;;;;;;8.50;6.50;;;;;22.95;100.00;98979.75;6068596;28;97320;-65
2023/06/24 05:35:31;;;;;;;;;9.00;9.00;;;;;22.97;100.00;98983.03;6058016;28;97218;-65
2023/06/24 05:38:36;;;;;;;;;7.25;7.00;;;;;23.01;100.00;98982.13;6070664;28;97014;-65
2023/06/24 05:41:39;;;;;;;;;8.25;8.00;;;;;23.02;100.00;98982.94;6067801;28;96673;-65
2023/06/24 05:44:43;;;;;;;;;8.80;7.20;;;;;23.10;100.00;98987.75;6067903;28;96696;-65
2023/06/24 05:47:47;;;;;;;;;10.00;9.50;;;;;23.11;100.00;98990.22;6067949;28;97001;-65
2023/06/24 05:50:50;;;;;;;;;6.40;6.40;;;;;23.15;100.00;98988.47;6067999;28;97978;-65
2023/06/24 05:53:55;;;;;;;;;8.80;8.00;;;;;23.12;100.00;98989.06;6050670;28;96495;-65
2023/06/24 05:56:58;;;;;;;;;9.20;8.20;;;;;23.21;100.00;98997.47;6067512;28;96590;-65
2023/06/24 06:00:03;;;;;;;;;7.80;7.00;;;;;23.25;100.00;98999.31;6050935;28;98767;-65
2023/06/24 06:03:14;;;;;;;;;9.00;9.00;;;;;23.30;100.00;98996.47;6068000;28;96457;-65
2023/06/24 06:06:17;;;;;;;;;9.20;8.20;;;;;23.32;100.00;99005.22;6050385;28;96697;-65
2023/06/24 06:09:23;;;;;;;;;9.00;9.00;;;;;23.24;100.00;99007.84;6066690;28;96497;-65
2023/06/24 06:12:26;;;;;;;;;9.00;9.00;;;;;23.18;100.00;99007.13;6064252;28;96625;-65
2023/06/24 06:15:29;;;;;;;;;10.33;9.67;;;;;23.16;100.00;99011.31;6048930;28;96477;-65
2023/06/24 06:18:33;;;;;;;;;10.00;8.00;;;;;23.18;100.00;99011.81;6066251;28;96827;-65
2023/06/24 06:21:37;;;;;;;;;9.00;8.40;;;;;23.14;100.00;99010.78;6066399;28;96653;-65
2023/06/24 06:24:42;;;;;;;;;9.60;8.00;;;;;23.14;100.00;99027.28;6065860;28;96447;-65
2023/06/24 06:27:45;;;;;;;;;10.00;9.00;;;;;23.03;100.00;99028.56;6066177;28;96721;-65
2023/06/24 06:30:49;;;;;;;;;10.00;9.40;;;;;23.07;100.00;99029.56;6067242;28;96540;-66
2023/06/24 06:33:52;;;;;;;;;11.00;10.80;;;;;23.01;100.00;99025.31;6066860;28;96558;-65
2023/06/24 06:36:55;;;;;;;;;8.00;7.00;;;;;23.02;100.00;99032.44;6066913;28;97264;-66
2023/06/24 06:40:00;;;;;;;;;13.00;12.00;;;;;23.03;100.00;99034.06;6067226;28;96317;-65
2023/06/24 06:43:04;;;;;;;;;11.00;10.00;;;;;23.09;100.00;99036.44;6049169;28;97927;-64
2023/06/24 06:46:07;;;;;;;;;11.00;10.60;;;;;23.12;100.00;99041.31;6066860;28;98202;-65
2023/06/24 06:49:11;;;;;;;;;12.00;11.00;;;;;23.19;100.00;99047.28;6066426;28;96714;-65
2023/06/24 06:52:14;;;;;;;;;10.25;9.00;;;;;23.21;100.00;99050.50;6063489;28;96770;-64
2023/06/24 06:55:21;;;;;;;;;11.00;11.00;;;;;23.21;100.00;99056.00;6033141;28;96710;-65
2023/06/24 06:58:25;;;;;;;;;10.00;10.00;;;;;23.16;100.00;99041.56;6050752;28;96710;-65
2023/06/24 07:01:28;;;;;;;;;12.60;11.00;;;;;23.31;100.00;99060.56;6070789;28;96897;-65
2023/06/24 07:04:32;;;;;;;;;11.00;10.50;;;;;23.22;100.00;99048.59;6088277;28;97608;-65
2023/06/24 07:07:37;;;;;;;;;14.00;13.00;;;;;23.32;100.00;99071.25;6054143;28;98547;-65
2023/06/24 07:10:42;;;;;;;;;13.00;12.00;;;;;23.26;100.00;99071.66;6048202;28;98521;-65
2023/06/24 07:13:45;;;;;;;;;14.60;13.60;;;;;23.18;100.00;99073.13;6047780;28;96733;-65
2023/06/24 07:16:49;;;;;;;;;15.40;14.00;;;;;23.18;100.00;99077.81;6066174;28;97078;-65
2023/06/24 07:19:52;;;;;;;;;14.00;12.20;;;;;23.16;100.00;99078.13;6047923;28;98921;-65
2023/06/24 07:22:55;;;;;;;;;17.80;15.80;;;;;23.17;100.00;99084.41;6065554;28;97046;-65
2023/06/24 07:26:00;;;;;;;;;16.50;16.00;;;;;23.12;100.00;99062.50;6065703;28;96701;-65
2023/06/24 07:29:07;;;;;;;;;15.80;14.20;;;;;23.16;100.00;99080.06;6066007;28;97152;-66
2023/06/24 07:32:12;;;;;;;;;13.60;13.60;;;;;23.25;100.00;99073.59;6070010;28;96561;-66
2023/06/24 07:35:16;;;;;;;;;13.60;12.60;;;;;23.28;100.00;99081.22;6066030;28;96904;-66
2023/06/24 07:38:19;;;;;;;;;15.20;14.00;;;;;23.29;100.00;99084.78;6046648;28;96819;-65
2023/06/24 07:41:24;;;;;;;;;13.80;12.00;;;;;23.26;100.00;99101.91;6065963;28;96477;-66
2023/06/24 07:44:27;;;;;;;;;12.00;12.00;;;;;23.22;100.00;99087.09;6048568;28;96178;-65
2023/06/24 07:47:31;;;;;;;;;16.00;15.00;;;;;23.38;100.00;99115.19;6065331;28;96847;-64
2023/06/24 07:50:35;;;;;;;;;20.00;19.00;;;;;23.39;100.00;99116.81;6065016;28;97027;-65
2023/06/24 07:53:39;;;;;;;;;16.80;14.40;;;;;23.39;100.00;99122.31;6047498;28;96774;-65
2023/06/24 07:56:44;;;;;;;;;19.00;14.60;;;;;23.42;100.00;99129.97;6060971;28;97290;-65
2023/06/24 07:59:48;;;;;;;;;19.00;17.00;;;;;23.45;100.00;99130.25;6064724;28;97520;-65
2023/06/24 08:02:51;;;;;;;;;23.40;21.80;;;;;23.45;100.00;99124.75;6064927;28;96607;-66
2023/06/24 08:05:56;;;;;;;;;15.20;13.00;;;;;23.62;100.00;99140.69;6065758;28;96501;-65
2023/06/24 08:08:59;;;;;;;;;17.00;16.00;;;;;23.75;100.00;99128.88;6069379;28;96643;-65
2023/06/24 08:12:04;;;;;;;;;17.75;16.75;;;;;23.80;100.00;99133.50;6069365;28;96902;-65
2023/06/24 08:15:09;;;;;;;;;20.75;18.75;;;;;23.93;100.00;99143.72;6067542;28;96712;-65
2023/06/24 08:18:12;;;;;;;;;19.40;18.00;;;;;23.98;100.00;99149.97;6068065;28;96824;-66
2023/06/24 08:21:16;;;;;;;;;19.00;17.00;;;;;24.03;100.00;99152.63;6069660;28;96316;-65
2023/06/24 08:24:19;;;;;;;;;23.75;20.00;;;;;24.09;100.00;99156.13;6067376;28;97182;-66
2023/06/24 08:27:24;;;;;;;;;16.75;15.00;;;;;24.11;100.00;99151.91;6052820;28;96525;-65
2023/06/24 08:30:27;;;;;;;;;16.00;15.00;;;;;24.13;100.00;99151.63;6069626;28;96515;-65
2023/06/24 08:33:30;;;;;;;;;17.25;15.25;;;;;24.18;100.00;99162.59;6051323;28;98436;-65
2023/06/24 08:36:34;;;;;;;;;14.80;13.20;;;;;24.20;100.00;99163.06;6052119;28;96710;-66
2023/06/24 08:39:38;;;;;;;;;14.00;13.00;;;;;24.21;100.00;99170.22;6069428;28;96524;-66
2023/06/24 08:42:44;;;;;;;;;12.80;11.80;;;;;24.15;100.00;99155.69;6068870;28;96502;-66
2023/06/24 08:45:48;;;;;;;;;13.00;13.00;;;;;24.20;100.00;99165.84;6049516;28;98404;-66
2023/06/24 08:49:00;;;;;;;;;15.00;15.00;;;;;24.17;100.00;99166.44;6066016;28;96815;-66
2023/06/24 08:52:06;;;;;;;;;15.00;13.00;;;;;24.18;100.00;99168.09;6067428;28;96869;-66
2023/06/24 08:55:13;;;;;;;;;15.00;12.00;;;;;24.17;100.00;99183.81;6066973;28;97550;-66
2023/06/24 08:58:18;;;;;;;;;16.00;15.60;;;;;24.16;100.00;99171.16;6067077;28;96518;-65
2023/06/24 09:01:22;;;;;;;;;13.80;13.00;;;;;24.15;100.00;99174.16;6066451;28;97563;-65
2023/06/24 09:04:26;;;;;;;;;15.40;14.00;;;;;24.15;100.00;99179.66;6046045;28;97062;-65
2023/06/24 09:07:30;;;;;;;;;10.80;10.20;;;;;24.18;100.00;99179.13;6063396;28;97037;-66
2023/06/24 09:10:35;;;;;;;;;13.00;12.00;;;;;24.08;100.00;99168.25;6063832;28;96650;-65
2023/06/24 09:13:39;;;;;;;;;11.20;11.00;;;;;24.26;100.00;99183.91;6064697;28;97133;-66
2023/06/24 09:16:51;;;;;;;;;13.25;13.25;;;;;24.30;100.00;99195.13;6064503;28;96547;-66
2023/06/24 09:19:56;;;;;;;;;12.00;12.00;;;;;24.34;100.00;99193.41;6065936;28;96907;-65
2023/06/24 09:23:00;;;;;;;;;11.80;10.80;;;;;24.45;100.00;99197.59;6066891;28;96975;-66
2023/06/24 09:26:04;;;;;;;;;12.25;11.00;;;;;24.39;99.06;99190.53;6050451;28;96721;-66
2023/06/24 09:29:09;;;;;;;;;12.40;12.00;;;;;24.51;99.86;99188.13;6068055;28;96296;-66
2023/06/24 09:32:12;;;;;;;;;11.00;11.00;;;;;24.64;100.00;99183.72;6068473;28;96453;-66
2023/06/24 09:35:19;;;;;;;;;14.40;12.00;;;;;24.77;100.00;99194.78;6068003;28;97122;-66
2023/06/24 09:38:33;;;;;;;;;13.00;13.00;;;;;24.94;100.00;99194.97;6068133;28;96495;-66
2023/06/24 09:41:37;;;;;;;;;14.00;13.00;;;;;25.05;100.00;99198.34;6051080;28;97199;-66
2023/06/24 09:44:42;;;;;;;;;12.00;11.00;;;;;25.07;98.65;99203.56;6067682;28;97620;-66
2023/06/24 09:47:45;;;;;;;;;13.00;13.00;;;;;25.12;97.87;99204.22;6050949;28;96412;-66
2023/06/24 09:50:49;;;;;;;;;13.00;12.00;;;;;25.20;95.96;99208.22;6050937;28;97114;-66
2023/06/24 09:53:54;;;;;;;;;12.00;11.00;;;;;25.23;94.75;99210.34;6067593;28;96456;-66
2023/06/24 09:57:02;;;;;;;;;13.00;12.00;;;;;25.24;91.61;99212.00;6050772;28;96331;-66
2023/06/24 10:00:09;;;;;;;;;11.40;11.00;;;;;25.28;91.93;99218.50;6067689;28;96395;-66
2023/06/24 10:03:13;;;;;;;;;11.20;11.00;;;;;25.27;90.66;99212.19;6067883;28;97124;-66
2023/06/24 10:06:17;;;;;;;;;9.00;9.00;;;;;25.28;89.90;99224.03;6049771;28;98389;-66
2023/06/24 10:09:21;;;;;;;;;12.00;10.00;;;;;25.21;87.72;99218.97;6067664;28;97090;-66
2023/06/24 10:12:26;;;;;;;;;11.00;10.00;;;;;25.23;88.82;99221.38;6049367;28;96604;-65
2023/06/24 10:15:31;;;;;;;;;10.00;9.60;;;;;25.20;86.73;99214.56;6067239;28;97302;-65
2023/06/24 10:18:36;;;;;;;;;12.40;11.00;;;;;25.20;87.33;99217.31;6067462;28;96985;-66
2023/06/24 10:21:48;;;;;;;;;10.25;9.50;;;;;25.16;87.18;99221.00;6050292;28;97511;-66
2023/06/24 10:24:53;;;;;;;;;11.00;10.00;;;;;25.13;86.47;99216.91;6066675;28;96504;-66
2023/06/24 10:27:56;;;;;;;;;11.00;10.00;;;;;25.04;86.95;99224.28;6066914;28;96461;-66
2023/06/24 10:31:01;;;;;;;;;9.25;9.00;;;;;25.04;86.05;99224.28;6065933;28;96552;-66
2023/06/24 10:34:23;;;;;;;;;14.60;12.40;;;;;24.99;88.35;99222.44;6048423;28;97654;-66
2023/06/24 10:37:31;;;;;;;;;12.00;11.00;;;;;24.97;89.07;99215.63;6067702;28;96607;-66
2023/06/24 10:40:39;;;;;;;;;11.00;10.25;;;;;24.95;88.91;99221.44;6050870;28;96598;-66
2023/06/24 10:43:42;;;;;;;;;12.00;11.00;;;;;24.87;88.79;99205.63;6048620;28;98408;-66
2023/06/24 10:46:54;;;;;;;;;8.50;8.00;;;;;25.02;90.28;99219.06;6066948;28;97609;-66
2023/06/24 10:49:58;;;;;;;;;12.00;11.00;;;;;25.13;91.61;99221.59;6066089;28;96479;-66
2023/06/24 10:53:08;;;;;;;;;14.00;11.60;;;;;25.23;90.99;99227.72;6066696;28;96613;-66
2023/06/24 10:56:12;;;;;;;;;12.00;11.00;;;;;25.37;90.92;99224.94;6067067;28;96921;-66
2023/06/24 10:59:16;;;;;;;;;10.00;9.60;;;;;25.55;89.36;99243.34;6066716;28;96384;-66
2023/06/24 11:02:21;;;;;;;;;9.60;8.60;;;;;25.73;86.69;99238.75;6065535;28;97647;-66
2023/06/24 11:05:25;;;;;;;;;9.40;9.00;;;;;25.88;86.61;99243.94;6047293;28;96833;-66
2023/06/24 11:08:28;;;;;;;;;9.60;8.00;;;;;25.90;84.75;99235.34;6031370;28;97055;-66
2023/06/24 11:11:32;;;;;;;;;9.80;9.00;;;;;25.79;84.64;99243.03;6048043;28;97204;-66
2023/06/24 11:14:37;;;;;;;;;12.60;11.00;;;;;25.66;86.11;99247.47;6048445;28;97005;-66
2023/06/24 11:17:42;;;;;;;;;14.00;12.80;;;;;25.57;88.21;99246.59;6065591;28;97521;-66
2023/06/24 11:20:45;;;;;;;;;14.60;13.40;;;;;25.48;86.95;99244.84;6066826;28;97153;-66
2023/06/24 11:23:49;;;;;;;;;14.25;13.00;;;;;25.41;86.72;99242.53;6032861;28;96830;-66
2023/06/24 11:26:52;;;;;;;;;16.75;16.00;;;;;25.33;87.30;99241.31;6066051;28;96456;-66
2023/06/24 11:30:02;;;;;;;;;17.00;14.00;;;;;25.13;86.32;99227.13;6066111;28;96315;-66
2023/06/24 11:33:09;;;;;;;;;23.00;17.60;;;;;25.13;87.06;99238.16;6066453;28;96241;-66
2023/06/24 11:36:12;;;;;;;;;11.50;11.00;;;;;25.14;86.85;99232.34;6066160;28;96535;-66
2023/06/24 11:39:23;;;;;;;;;20.00;17.00;;;;;25.18;87.30;99240.81;6066244;28;96684;-66
2023/06/24 11:42:26;;;;;;;;;14.00;12.40;;;;;25.20;87.73;99241.34;6068987;28;96910;-65
2023/06/24 11:45:30;;;;;;;;;13.40;13.40;;;;;25.23;91.56;99247.03;6053572;28;96439;-66
2023/06/24 11:48:40;;;;;;;;;14.00;13.00;;;;;25.28;91.12;99243.34;6053621;28;96701;-66
2023/06/24 11:51:49;;;;;;;;;12.20;12.00;;;;;25.30;91.79;99246.63;6070846;28;96560;-66
2023/06/24 11:54:52;;;;;;;;;12.00;11.75;;;;;25.24;88.41;99240.41;6053188;28;96818;-66
2023/06/24 11:57:58;;;;;;;;;16.00;14.00;;;;;25.09;89.42;99226.94;6052150;28;96702;-66
2023/06/24 12:01:02;;;;;;;;;12.00;10.80;;;;;25.06;87.84;99237.78;6070501;28;96750;-66
2023/06/24 12:04:13;;;;;;;;;13.50;12.50;;;;;25.10;90.65;99227.75;6052881;28;98384;-66
2023/06/24 12:07:16;;;;;;;;;14.00;13.00;;;;;25.02;90.73;99227.34;6070183;28;96496;-66
2023/06/24 12:10:20;;;;;;;;;12.00;11.00;;;;;25.00;92.31;99234.31;6070119;28;97551;-66
2023/06/24 12:13:23;;;;;;;;;16.40;13.40;;;;;24.99;93.15;99232.66;6069955;28;96592;-66
2023/06/24 12:16:27;;;;;;;;;13.75;12.75;;;;;24.98;93.80;99229.09;6069777;28;96561;-66
2023/06/24 12:19:32;;;;;;;;;15.50;13.50;;;;;24.91;92.33;99227.88;6069629;28;97582;-65
2023/06/24 12:22:36;;;;;;;;;14.00;13.00;;;;;24.95;92.29;99231.66;6052343;28;96612;-66
2023/06/24 12:25:40;;;;;;;;;15.25;15.00;;;;;24.93;92.22;99231.94;6052830;28;96589;-66
2023/06/24 12:28:43;;;;;;;;;11.40;10.40;;;;;24.86;91.98;99227.94;6069453;28;96708;-66
2023/06/24 12:31:46;;;;;;;;;8.60;8.00;;;;;24.79;91.68;99238.56;6069678;28;97056;-66
2023/06/24 12:34:51;;;;;;;;;7.60;7.60;;;;;24.65;91.01;99244.06;6070070;28;96467;-66
2023/06/24 12:37:55;;;;;;;;;7.00;7.00;;;;;24.57;91.90;99242.03;6069382;28;97628;-66
2023/06/24 12:40:58;;;;;;;;;8.00;7.00;;;;;24.59;91.13;99256.31;6069862;28;96420;-66
2023/06/24 12:44:02;;;;;;;;;7.00;7.00;;;;;24.43;87.97;99253.06;6051659;28;96917;-65
2023/06/24 12:47:06;;;;;;;;;9.00;8.00;;;;;24.28;87.71;99260.78;6068651;28;96621;-66
2023/06/24 12:50:11;;;;;;;;;9.67;9.00;;;;;24.13;88.73;99259.88;6068288;28;96865;-66
2023/06/24 12:53:15;;;;;;;;;9.00;8.25;;;;;24.01;87.06;99255.94;6068545;28;96478;-66
2023/06/24 12:56:19;;;;;;;;;9.00;8.50;;;;;23.95;85.49;99251.63;6051244;28;100137;-66
2023/06/24 12:59:22;;;;;;;;;8.00;8.00;;;;;23.83;83.54;99249.38;6051459;28;98321;-66
2023/06/24 13:02:25;;;;;;;;;9.00;8.00;;;;;23.87;84.89;99241.31;6068798;28;96876;-65
2023/06/24 13:05:30;;;;;;;;;5.80;5.00;;;;;23.93;86.35;99245.63;6067431;28;96830;-65
2023/06/24 13:08:34;;;;;;;;;9.00;7.00;;;;;23.93;86.80;99249.19;6066384;28;96899;-65
2023/06/24 13:11:39;;;;;;;;;5.00;5.00;;;;;23.96;85.34;99247.75;6067077;28;96658;-65
2023/06/24 13:14:42;;;;;;;;;7.00;6.20;;;;;24.08;85.97;99243.44;6049159;28;96742;-65
2023/06/24 13:17:45;;;;;;;;;6.80;6.40;;;;;24.16;84.13;99240.00;6066969;28;98026;-66
2023/06/24 13:20:50;;;;;;;;;7.00;6.60;;;;;24.18;82.45;99231.47;6051497;28;96841;-66
2023/06/24 13:24:02;;;;;;;;;6.50;5.50;;;;;24.19;81.91;99240.53;6050360;28;96709;-66
2023/06/24 13:27:06;;;;;;;;;6.00;5.00;;;;;24.17;80.57;99233.38;6068898;28;96351;-65
2023/06/24 13:30:10;;;;;;;;;6.80;6.20;;;;;24.19;80.42;99232.28;6047301;28;96456;-66
2023/06/24 13:33:13;;;;;;;;;6.00;6.00;;;;;24.19;80.34;99229.53;6035774;28;96649;-66
2023/06/24 13:36:32;;;;;;;;;4.25;4.25;;;;;24.17;80.55;99227.88;6068745;28;96726;-66
2023/06/24 13:39:35;;;;;;;;;5.00;5.00;;;;;24.17;81.34;99233.38;6068609;28;96859;-66
2023/06/24 13:42:39;;;;;;;;;7.00;6.00;;;;;24.15;79.98;99230.06;6068796;28;96944;-66
2023/06/24 13:45:42;;;;;;;;;5.00;4.40;;;;;24.15;80.50;99243.84;6051714;28;96995;-66
2023/06/24 13:48:46;;;;;;;;;6.00;5.00;;;;;24.06;80.36;99220.88;6051449;28;97746;-66
2023/06/24 13:51:51;;;;;;;;;7.00;5.00;;;;;24.07;80.54;99238.22;6068671;28;96487;-66
2023/06/24 13:54:54;;;;;;;;;6.00;6.00;;;;;24.01;80.90;99239.41;6068278;28;97045;-66
2023/06/24 13:57:58;;;;;;;;;7.00;6.00;;;;;23.98;81.33;99240.03;6067139;28;97117;-66
2023/06/24 14:01:01;;;;;;;;;8.00;7.25;;;;;23.96;82.82;99250.53;6066851;28;96819;-66
2023/06/24 14:04:05;;;;;;;;;4.20;4.20;;;;;23.94;83.90;99255.53;6066604;28;96792;-66
2023/06/24 14:07:10;;;;;;;;;7.00;6.00;;;;;23.88;84.47;99264.97;6049762;28;96797;-66
2023/06/24 14:10:16;;;;;;;;;8.20;7.20;;;;;23.84;86.18;99256.50;6067477;28;96589;-66
2023/06/24 14:13:19;;;;;;;;;9.00;8.00;;;;;23.77;86.99;99253.31;6066448;28;96595;-66
2023/06/24 14:16:22;;;;;;;;;7.60;6.00;;;;;23.70;85.70;99253.66;6067168;28;96617;-66
2023/06/24 14:19:26;;;;;;;;;7.80;6.80;;;;;23.67;89.97;99251.53;6048845;28;97751;-66